BXL weather

Blue Lagoon Seaplane Base
Nanuya Lailai Island, Western, Fiji

Public forecast

Using degrees Celsius for public forecast. Weather courtesy of forecast.io.

METAR (pilot weather report)

Closest report is Nadi International Airport, 49.0 nm (90.7 km) S. Retrieved 2019/07/20 15:00 UTC (55 minutes ago):

NFFN 201500Z VRB02KT 9999 -RA SCT025 SCT045 BKN100 24/23 Q1009 NOSIG

TAF (pilot weather forecast)

Forecast is more than 6 hours old.

Closest forecast is Nadi International Airport, 49.0 nm (90.7 km) S. Retrieved 2019/07/20 06:00 UTC (10 hours ago):

TAF NFFN 200526Z 2006/2106 10005KT 9999 -SHRA FEW007 SCT027 BKN048 TEMPO 2006/2012 3000 TSRA BKN015 FEW017CB PROB40 TEMPO 2012/2018 3000 TSRA BKN015 FEW017CB PROB40 TEMPO 2018/2024 5000 SHRA BKN015 PROB30 TEMPO 2102/2106 5000 TSRA FEW017CB